createdAt,value
2023-02-26T00:04:25.673Z,99056.78
2023-02-26T00:10:27.750Z,99066.22
2023-02-26T00:16:29.777Z,99076.22
2023-02-26T00:22:32.276Z,99074.00
2023-02-26T00:28:34.766Z,99081.38
2023-02-26T00:34:37.140Z,99094.69
2023-02-26T00:40:50.175Z,99098.44
2023-02-26T00:46:59.810Z,99106.75
2023-02-26T00:53:13.490Z,99117.47
2023-02-26T00:59:16.472Z,99115.78
2023-02-26T01:05:19.402Z,99116.75
2023-02-26T01:11:21.613Z,99126.19
2023-02-26T01:17:39.733Z,99131.31
2023-02-26T01:23:47.820Z,99137.00
2023-02-26T01:29:49.900Z,99134.53
2023-02-26T01:36:01.381Z,99137.41
2023-02-26T01:42:29.698Z,99142.44
2023-02-26T01:48:55.492Z,99149.38
2023-02-26T01:54:57.517Z,99152.00
2023-02-26T02:01:00.114Z,99158.09
2023-02-26T02:07:03.637Z,99165.72
2023-02-26T02:13:34.488Z,99175.88
2023-02-26T02:19:54.238Z,99173.09
2023-02-26T02:26:37.983Z,99181.41
2023-02-26T02:32:48.945Z,99190.41
2023-02-26T02:38:59.110Z,99202.19
2023-02-26T02:45:29.802Z,99198.88
2023-02-26T02:51:46.455Z,99217.59
2023-02-26T02:58:06.844Z,99225.63
2023-02-26T03:04:13.744Z,99229.88
2023-02-26T03:10:17.294Z,99235.69
2023-02-26T03:16:46.810Z,99247.97
2023-02-26T03:23:12.090Z,99256.63
2023-02-26T03:29:38.514Z,99266.34
2023-02-26T03:36:08.497Z,99267.44
2023-02-26T03:42:27.040Z,99283.22
2023-02-26T03:48:31.114Z,99291.06
2023-02-26T03:54:53.463Z,99305.03
2023-02-26T04:01:04.215Z,99315.75
2023-02-26T04:07:06.272Z,99320.00
2023-02-26T04:13:08.322Z,99329.31
2023-02-26T04:19:10.319Z,99338.28
2023-02-26T04:25:12.223Z,99334.41
2023-02-26T04:31:15.578Z,99343.78
2023-02-26T04:37:17.576Z,99351.63
2023-02-26T04:43:19.999Z,99361.41
2023-02-26T04:49:21.876Z,99363.50
2023-02-26T04:55:23.796Z,99371.75
2023-02-26T05:01:26.126Z,99376.28
2023-02-26T05:07:28.039Z,99385.06
2023-02-26T05:13:29.912Z,99386.78
2023-02-26T05:19:31.801Z,99399.06
2023-02-26T05:25:33.688Z,99410.22
2023-02-26T05:31:35.602Z,99412.47
2023-02-26T05:37:38.973Z,99414.91
2023-02-26T05:43:41.876Z,99418.91
2023-02-26T05:49:43.826Z,99428.81
2023-02-26T05:55:45.713Z,99440.84
2023-02-26T06:01:47.799Z,99453.59
2023-02-26T06:07:49.768Z,99457.28
2023-02-26T06:13:51.640Z,99472.59
2023-02-26T06:19:53.569Z,99473.22
2023-02-26T06:25:55.500Z,99486.84
2023-02-26T06:31:57.635Z,99507.66
2023-02-26T06:37:59.660Z,99517.56
2023-02-26T06:44:01.637Z,99526.53
2023-02-26T06:50:04.177Z,99544.94
2023-02-26T06:56:06.722Z,99555.47
2023-02-26T07:02:19.849Z,99564.91
2023-02-26T07:08:21.800Z,99580.41
2023-02-26T07:14:23.753Z,99587.50
2023-02-26T07:20:26.621Z,99592.19
2023-02-26T07:26:28.686Z,99598.09
2023-02-26T07:32:31.424Z,99604.88
2023-02-26T07:38:33.363Z,99607.28
2023-02-26T07:44:35.850Z,99616.53
2023-02-26T07:50:37.823Z,99630.50
2023-02-26T07:56:41.231Z,99644.81
2023-02-26T08:02:43.145Z,99640.78
2023-02-26T08:08:45.025Z,99661.44
2023-02-26T08:14:47.922Z,99640.31
2023-02-26T08:20:52.591Z,99662.25
2023-02-26T08:26:54.562Z,99665.69
2023-02-26T08:32:56.456Z,99677.97
2023-02-26T08:38:58.443Z,99688.09
2023-02-26T08:45:00.364Z,99704.00
2023-02-26T08:51:02.325Z,99710.97
2023-02-26T08:57:04.312Z,99710.22
2023-02-26T09:03:06.268Z,99717.47
2023-02-26T09:09:08.605Z,99741.38
2023-02-26T09:15:12.037Z,99745.69
2023-02-26T09:21:14.186Z,99760.66
2023-02-26T09:27:16.580Z,99764.09
2023-02-26T09:33:18.837Z,99778.31
2023-02-26T09:39:20.748Z,99780.13
2023-02-26T09:45:33.299Z,99793.00
2023-02-26T09:51:36.687Z,99806.50
2023-02-26T09:57:45.783Z,99813.75
2023-02-26T10:04:40.259Z,99814.97
2023-02-26T10:11:12.584Z,99820.13
2023-02-26T10:17:40.961Z,99835.53
2023-02-26T10:23:50.186Z,99833.78
2023-02-26T10:30:14.207Z,99839.53
2023-02-26T10:36:52.174Z,99842.25
2023-02-26T10:43:03.213Z,99848.31
2023-02-26T10:49:42.550Z,99859.16
2023-02-26T10:55:55.863Z,99860.03
2023-02-26T11:01:59.222Z,99858.06
2023-02-26T11:08:23.429Z,99861.41
2023-02-26T11:14:28.127Z,99852.63
2023-02-26T11:20:40.926Z,99865.56
2023-02-26T11:26:48.664Z,99873.91
2023-02-26T11:32:53.394Z,99874.94
2023-02-26T11:39:15.363Z,99870.38
2023-02-26T11:45:20.234Z,99873.06
2023-02-26T11:51:27.660Z,99873.06
2023-02-26T11:57:32.317Z,99868.56
2023-02-26T12:03:41.454Z,99873.66
2023-02-26T12:09:46.105Z,99869.09
2023-02-26T12:16:34.899Z,99867.19
2023-02-26T12:22:57.381Z,99875.97
2023-02-26T12:29:17.242Z,99871.22
2023-02-26T12:35:54.394Z,99881.28
2023-02-26T12:42:30.491Z,99892.31
2023-02-26T12:49:19.213Z,99892.22
2023-02-26T12:55:58.893Z,99888.94
2023-02-26T13:02:15.701Z,99897.50
2023-02-26T13:08:49.317Z,99900.38
2023-02-26T13:15:33.552Z,99899.44
2023-02-26T13:21:51.849Z,99904.53
2023-02-26T13:27:57.739Z,99904.25
2023-02-26T13:34:11.957Z,99899.50
2023-02-26T13:40:35.472Z,99909.88
2023-02-26T13:47:27.146Z,99906.47
2023-02-26T13:53:41.154Z,99903.34
2023-02-26T14:00:04.589Z,99899.94
2023-02-26T14:06:56.515Z,99896.19
2023-02-26T14:13:21.347Z,99906.44
2023-02-26T14:19:32.054Z,99900.59
2023-02-26T14:25:53.297Z,99914.22
2023-02-26T14:32:09.672Z,99915.00
2023-02-26T14:38:36.110Z,99904.16
2023-02-26T14:44:44.037Z,99914.34
2023-02-26T14:51:23.635Z,99922.09
2023-02-26T14:57:28.275Z,99914.41
2023-02-26T15:03:57.220Z,99917.81
2023-02-26T15:10:23.172Z,99912.69
2023-02-26T15:17:04.229Z,99914.09
2023-02-26T15:23:57.230Z,99932.56
2023-02-26T15:30:00.690Z,99933.47
2023-02-26T15:36:12.387Z,99931.13
2023-02-26T15:42:14.917Z,99940.63
2023-02-26T15:48:25.747Z,99941.56
2023-02-26T15:55:02.640Z,99945.06
2023-02-26T16:01:05.700Z,99947.88
2023-02-26T16:07:10.837Z,99941.16
2023-02-26T16:13:28.154Z,99949.41
2023-02-26T16:19:48.904Z,99953.22
2023-02-26T16:26:01.768Z,99964.56
2023-02-26T16:32:09.543Z,99969.97
2023-02-26T16:38:49.875Z,99968.44
2023-02-26T16:45:22.633Z,99976.31
2023-02-26T16:51:28.767Z,99986.47
2023-02-26T16:57:44.672Z,99989.97
2023-02-26T17:03:51.099Z,99996.06
2023-02-26T17:09:59.088Z,100006.31
2023-02-26T17:16:08.914Z,100001.09
2023-02-26T17:22:17.549Z,100007.66
2023-02-26T17:28:25.409Z,100025.59
2023-02-26T17:34:27.338Z,100027.75
2023-02-26T17:40:36.480Z,100029.03
2023-02-26T17:46:38.443Z,100030.31
2023-02-26T17:52:40.340Z,100046.84
2023-02-26T17:58:42.918Z,100048.91
2023-02-26T18:04:45.334Z,100056.34
2023-02-26T18:10:47.343Z,100057.13
2023-02-26T18:16:49.326Z,100061.38
2023-02-26T18:22:51.301Z,100055.09
2023-02-26T18:28:55.540Z,100065.47
2023-02-26T18:34:57.480Z,100068.28
2023-02-26T18:41:01.879Z,100074.72
2023-02-26T18:47:04.187Z,100080.44
2023-02-26T18:53:06.104Z,100075.88
2023-02-26T18:59:08.194Z,100092.94
2023-02-26T19:05:12.157Z,100104.94
2023-02-26T19:11:14.290Z,100113.94
2023-02-26T19:17:16.453Z,100122.44
2023-02-26T19:23:18.706Z,100137.81
2023-02-26T19:29:20.681Z,100132.16
2023-02-26T19:35:26.883Z,100141.81
2023-02-26T19:41:29.537Z,100144.34
2023-02-26T19:47:31.473Z,100156.00
2023-02-26T19:53:34.871Z,100155.59
2023-02-26T19:59:36.908Z,100166.28
2023-02-26T20:05:38.978Z,100172.63
2023-02-26T20:11:40.920Z,100184.09
2023-02-26T20:17:43.596Z,100187.50
2023-02-26T20:23:45.565Z,100190.66
2023-02-26T20:29:47.629Z,100195.22
2023-02-26T20:35:49.710Z,100198.81
2023-02-26T20:41:51.635Z,100203.25
2023-02-26T20:47:53.501Z,100210.53
2023-02-26T20:53:55.401Z,100213.03
2023-02-26T20:59:57.297Z,100213.38
2023-02-26T21:05:59.221Z,100226.13
2023-02-26T21:12:01.109Z,100221.97
2023-02-26T21:18:03.088Z,100229.25
2023-02-26T21:24:05.453Z,100226.28
2023-02-26T21:30:10.399Z,100235.22
2023-02-26T21:36:14.066Z,100235.16
2023-02-26T21:42:16.219Z,100239.97
2023-02-26T21:48:18.168Z,100240.69
2023-02-26T21:54:20.258Z,100242.91
2023-02-26T22:00:22.977Z,100245.00
2023-02-26T22:06:25.180Z,100240.34
2023-02-26T22:12:27.084Z,100244.22
2023-02-26T22:18:29.220Z,100263.13
2023-02-26T22:24:31.791Z,100257.97
2023-02-26T22:30:33.760Z,100260.91
2023-02-26T22:36:36.313Z,100261.75
2023-02-26T22:42:39.639Z,100259.28
2023-02-26T22:48:41.590Z,100261.31
2023-02-26T22:54:46.357Z,100259.88
2023-02-26T23:00:48.577Z,100265.25
2023-02-26T23:06:50.706Z,100270.09
2023-02-26T23:12:52.660Z,100274.16
2023-02-26T23:18:54.845Z,100285.72
2023-02-26T23:24:56.752Z,100284.59
2023-02-26T23:30:59.060Z,100285.78
2023-02-26T23:37:01.022Z,100287.19
2023-02-26T23:43:03.450Z,100283.91
2023-02-26T23:49:05.352Z,100293.38
2023-02-26T23:55:08.088Z,100294.59
